sensor_id;sensor_type;location;lat;lon;timestamp;pressure;altitude;pressure_sealevel;temperature;humidity
42601;BME280;28229;48.856;9.088;2023-06-14T00:02:12;97470.53;;;14.26;51.93
42601;BME280;28229;48.856;9.088;2023-06-14T00:04:39;97476.56;;;14.22;52.29
42601;BME280;28229;48.856;9.088;2023-06-14T00:07:07;97467.06;;;14.21;52.27
42601;BME280;28229;48.856;9.088;2023-06-14T00:09:34;97473.34;;;14.15;51.66
42601;BME280;28229;48.856;9.088;2023-06-14T00:12:01;97472.44;;;14.04;51.63
42601;BME280;28229;48.856;9.088;2023-06-14T00:14:27;97469.56;;;14.05;51.73
42601;BME280;28229;48.856;9.088;2023-06-14T00:16:53;97471.13;;;14.01;51.78
42601;BME280;28229;48.856;9.088;2023-06-14T00:19:25;97474.19;;;13.93;52.64
42601;BME280;28229;48.856;9.088;2023-06-14T00:21:51;97476.53;;;13.89;52.60
42601;BME280;28229;48.856;9.088;2023-06-14T00:24:19;97477.03;;;13.86;53.89
42601;BME280;28229;48.856;9.088;2023-06-14T00:26:45;97468.56;;;13.84;53.86
42601;BME280;28229;48.856;9.088;2023-06-14T00:29:11;97475.16;;;13.82;53.44
42601;BME280;28229;48.856;9.088;2023-06-14T00:31:37;97479.28;;;13.73;54.08
42601;BME280;28229;48.856;9.088;2023-06-14T00:34:03;97472.47;;;13.77;54.00
42601;BME280;28229;48.856;9.088;2023-06-14T00:36:30;97477.38;;;13.68;54.52
42601;BME280;28229;48.856;9.088;2023-06-14T00:38:56;97476.84;;;13.66;54.53
42601;BME280;28229;48.856;9.088;2023-06-14T00:41:22;97478.13;;;13.63;54.91
42601;BME280;28229;48.856;9.088;2023-06-14T00:43:48;97475.41;;;13.58;55.58
42601;BME280;28229;48.856;9.088;2023-06-14T00:46:15;97476.41;;;13.52;55.95
42601;BME280;28229;48.856;9.088;2023-06-14T00:48:41;97472.75;;;13.53;55.98
42601;BME280;28229;48.856;9.088;2023-06-14T00:51:07;97481.16;;;13.50;56.18
42601;BME280;28229;48.856;9.088;2023-06-14T00:53:34;97468.66;;;13.45;55.92
42601;BME280;28229;48.856;9.088;2023-06-14T00:56:02;97470.81;;;13.48;56.14
42601;BME280;28229;48.856;9.088;2023-06-14T00:58:29;97461.03;;;13.49;56.30
42601;BME280;28229;48.856;9.088;2023-06-14T01:00:55;97474.94;;;13.39;56.67
42601;BME280;28229;48.856;9.088;2023-06-14T01:03:22;97475.19;;;13.38;56.78
42601;BME280;28229;48.856;9.088;2023-06-14T01:05:59;97472.72;;;13.31;57.78
42601;BME280;28229;48.856;9.088;2023-06-14T01:08:50;97473.47;;;13.26;58.14
42601;BME280;28229;48.856;9.088;2023-06-14T01:11:28;97474.78;;;13.07;58.32
42601;BME280;28229;48.856;9.088;2023-06-14T01:14:11;97471.16;;;13.13;58.02
42601;BME280;28229;48.856;9.088;2023-06-14T01:16:39;97481.72;;;13.13;57.98
42601;BME280;28229;48.856;9.088;2023-06-14T01:19:09;97487.56;;;13.15;57.92
42601;BME280;28229;48.856;9.088;2023-06-14T01:21:40;97487.56;;;13.15;57.84
42601;BME280;28229;48.856;9.088;2023-06-14T01:24:11;97492.72;;;13.05;57.97
42601;BME280;28229;48.856;9.088;2023-06-14T01:26:38;97483.44;;;13.02;58.54
42601;BME280;28229;48.856;9.088;2023-06-14T01:29:05;97488.94;;;13.01;57.83
42601;BME280;28229;48.856;9.088;2023-06-14T01:31:32;97488.88;;;12.95;58.08
42601;BME280;28229;48.856;9.088;2023-06-14T01:34:07;97489.88;;;12.89;58.62
42601;BME280;28229;48.856;9.088;2023-06-14T01:36:36;97485.53;;;12.83;58.73
42601;BME280;28229;48.856;9.088;2023-06-14T01:39:07;97480.13;;;12.73;58.99
42601;BME280;28229;48.856;9.088;2023-06-14T01:41:34;97480.75;;;12.80;59.21
42601;BME280;28229;48.856;9.088;2023-06-14T01:44:00;97481.72;;;12.74;59.79
42601;BME280;28229;48.856;9.088;2023-06-14T01:46:27;97479.06;;;12.74;59.85
42601;BME280;28229;48.856;9.088;2023-06-14T01:48:54;97481.41;;;12.70;59.84
42601;BME280;28229;48.856;9.088;2023-06-14T01:51:20;97478.22;;;12.68;60.09
42601;BME280;28229;48.856;9.088;2023-06-14T01:53:48;97489.00;;;12.67;60.36
42601;BME280;28229;48.856;9.088;2023-06-14T01:56:14;97491.16;;;12.70;60.07
42601;BME280;28229;48.856;9.088;2023-06-14T01:58:40;97486.53;;;12.60;60.75
42601;BME280;28229;48.856;9.088;2023-06-14T02:01:06;97491.41;;;12.68;60.79
42601;BME280;28229;48.856;9.088;2023-06-14T02:03:33;97490.53;;;12.63;60.52
42601;BME280;28229;48.856;9.088;2023-06-14T02:06:00;97484.47;;;12.62;60.91
42601;BME280;28229;48.856;9.088;2023-06-14T02:08:26;97485.97;;;12.58;60.79
42601;BME280;28229;48.856;9.088;2023-06-14T02:10:52;97491.44;;;12.51;60.62
42601;BME280;28229;48.856;9.088;2023-06-14T02:13:21;97487.41;;;12.49;60.84
42601;BME280;28229;48.856;9.088;2023-06-14T02:15:48;97488.63;;;12.41;60.77
42601;BME280;28229;48.856;9.088;2023-06-14T02:18:17;97489.56;;;12.35;61.01
42601;BME280;28229;48.856;9.088;2023-06-14T02:20:43;97490.06;;;12.32;61.38
42601;BME280;28229;48.856;9.088;2023-06-14T02:23:09;97491.00;;;12.26;61.69
42601;BME280;28229;48.856;9.088;2023-06-14T02:25:35;97496.41;;;12.19;61.42
42601;BME280;28229;48.856;9.088;2023-06-14T02:28:03;97487.34;;;12.27;61.96
42601;BME280;28229;48.856;9.088;2023-06-14T02:30:31;97487.81;;;12.24;61.70
42601;BME280;28229;48.856;9.088;2023-06-14T02:32:57;97493.56;;;12.21;62.01
42601;BME280;28229;48.856;9.088;2023-06-14T02:35:25;97490.13;;;12.20;61.94
42601;BME280;28229;48.856;9.088;2023-06-14T02:37:53;97491.31;;;12.12;62.28
42601;BME280;28229;48.856;9.088;2023-06-14T02:40:22;97485.06;;;12.02;62.65
42601;BME280;28229;48.856;9.088;2023-06-14T02:42:49;97486.41;;;12.04;62.83
42601;BME280;28229;48.856;9.088;2023-06-14T02:45:17;97485.41;;;12.05;61.73
42601;BME280;28229;48.856;9.088;2023-06-14T02:47:43;97483.13;;;11.97;62.64
42601;BME280;28229;48.856;9.088;2023-06-14T02:50:12;97490.03;;;11.86;63.66
42601;BME280;28229;48.856;9.088;2023-06-14T02:52:39;97489.38;;;11.91;63.70
42601;BME280;28229;48.856;9.088;2023-06-14T02:55:08;97489.81;;;11.88;63.84
42601;BME280;28229;48.856;9.088;2023-06-14T02:57:35;97487.41;;;11.86;64.05
42601;BME280;28229;48.856;9.088;2023-06-14T03:00:03;97495.31;;;11.86;64.14
42601;BME280;28229;48.856;9.088;2023-06-14T03:02:31;97485.94;;;11.78;63.80
42601;BME280;28229;48.856;9.088;2023-06-14T03:04:58;97490.16;;;11.79;64.16
42601;BME280;28229;48.856;9.088;2023-06-14T03:07:28;97488.72;;;11.72;64.48
42601;BME280;28229;48.856;9.088;2023-06-14T03:09:56;97492.16;;;11.72;64.37
42601;BME280;28229;48.856;9.088;2023-06-14T03:12:22;97492.78;;;11.62;64.68
42601;BME280;28229;48.856;9.088;2023-06-14T03:14:49;97490.38;;;11.61;64.80
42601;BME280;28229;48.856;9.088;2023-06-14T03:17:18;97493.56;;;11.63;64.66
42601;BME280;28229;48.856;9.088;2023-06-14T03:19:45;97490.69;;;11.65;63.87
42601;BME280;28229;48.856;9.088;2023-06-14T03:22:13;97501.91;;;11.60;64.46
42601;BME280;28229;48.856;9.088;2023-06-14T03:24:41;97497.22;;;11.62;64.73
42601;BME280;28229;48.856;9.088;2023-06-14T03:27:11;97493.22;;;11.59;65.31
42601;BME280;28229;48.856;9.088;2023-06-14T03:29:41;97499.94;;;11.67;65.17
42601;BME280;28229;48.856;9.088;2023-06-14T03:32:08;97499.94;;;11.67;65.25
42601;BME280;28229;48.856;9.088;2023-06-14T03:34:41;97504.00;;;11.58;65.35
42601;BME280;28229;48.856;9.088;2023-06-14T03:37:10;97508.91;;;11.66;65.04
42601;BME280;28229;48.856;9.088;2023-06-14T03:39:37;97504.09;;;11.63;65.36
42601;BME280;28229;48.856;9.088;2023-06-14T03:42:04;97509.81;;;11.60;65.52
42601;BME280;28229;48.856;9.088;2023-06-14T03:44:31;97517.84;;;11.65;65.55
42601;BME280;28229;48.856;9.088;2023-06-14T03:46:57;97520.13;;;11.61;66.24
42601;BME280;28229;48.856;9.088;2023-06-14T03:49:25;97525.63;;;11.60;66.45
42601;BME280;28229;48.856;9.088;2023-06-14T03:51:51;97523.56;;;11.62;65.88
42601;BME280;28229;48.856;9.088;2023-06-14T03:54:20;97528.75;;;11.57;66.08
42601;BME280;28229;48.856;9.088;2023-06-14T03:56:48;97529.00;;;11.55;66.25
42601;BME280;28229;48.856;9.088;2023-06-14T03:59:14;97529.88;;;11.61;65.88
42601;BME280;28229;48.856;9.088;2023-06-14T04:01:41;97535.25;;;11.66;65.29
42601;BME280;28229;48.856;9.088;2023-06-14T04:04:13;97540.63;;;11.71;65.64
42601;BME280;28229;48.856;9.088;2023-06-14T04:06:42;97542.44;;;11.71;65.12
42601;BME280;28229;48.856;9.088;2023-06-14T04:09:10;97543.94;;;11.67;65.40
42601;BME280;28229;48.856;9.088;2023-06-14T04:11:36;97545.06;;;11.71;65.01
42601;BME280;28229;48.856;9.088;2023-06-14T04:14:03;97541.41;;;11.72;65.85
42601;BME280;28229;48.856;9.088;2023-06-14T04:16:29;97547.47;;;11.72;66.06
42601;BME280;28229;48.856;9.088;2023-06-14T04:18:56;97554.59;;;11.72;66.31
42601;BME280;28229;48.856;9.088;2023-06-14T04:21:24;97543.09;;;11.78;66.26
42601;BME280;28229;48.856;9.088;2023-06-14T04:23:53;97552.63;;;11.79;66.30
42601;BME280;28229;48.856;9.088;2023-06-14T04:26:24;97557.22;;;11.84;66.30
42601;BME280;28229;48.856;9.088;2023-06-14T04:28:56;97559.91;;;11.89;66.19
42601;BME280;28229;48.856;9.088;2023-06-14T04:31:23;97562.47;;;11.84;66.53
42601;BME280;28229;48.856;9.088;2023-06-14T04:33:52;97562.56;;;11.89;66.04
42601;BME280;28229;48.856;9.088;2023-06-14T04:36:21;97558.22;;;11.94;66.99
42601;BME280;28229;48.856;9.088;2023-06-14T04:38:49;97562.31;;;12.02;66.66
42601;BME280;28229;48.856;9.088;2023-06-14T04:41:16;97566.06;;;12.06;66.93
42601;BME280;28229;48.856;9.088;2023-06-14T04:43:44;97564.59;;;12.10;66.98
42601;BME280;28229;48.856;9.088;2023-06-14T04:46:16;97558.91;;;12.18;66.41
42601;BME280;28229;48.856;9.088;2023-06-14T04:48:43;97567.25;;;12.27;66.51
42601;BME280;28229;48.856;9.088;2023-06-14T04:51:10;97571.44;;;12.40;66.68
42601;BME280;28229;48.856;9.088;2023-06-14T04:53:37;97573.22;;;12.51;67.11
42601;BME280;28229;48.856;9.088;2023-06-14T04:56:05;97568.09;;;12.62;68.16
42601;BME280;28229;48.856;9.088;2023-06-14T04:58:33;97577.88;;;12.78;67.95
42601;BME280;28229;48.856;9.088;2023-06-14T05:00:59;97578.34;;;12.92;67.61
42601;BME280;28229;48.856;9.088;2023-06-14T05:03:25;97578.81;;;13.06;66.62
42601;BME280;28229;48.856;9.088;2023-06-14T05:05:53;97587.69;;;13.17;65.00
42601;BME280;28229;48.856;9.088;2023-06-14T05:08:21;97597.34;;;13.28;64.21
42601;BME280;28229;48.856;9.088;2023-06-14T05:10:50;97594.56;;;13.35;63.87
42601;BME280;28229;48.856;9.088;2023-06-14T05:13:17;97592.63;;;13.47;63.55
42601;BME280;28229;48.856;9.088;2023-06-14T05:15:45;97597.97;;;13.52;62.51
42601;BME280;28229;48.856;9.088;2023-06-14T05:18:11;97589.13;;;13.63;62.34
42601;BME280;28229;48.856;9.088;2023-06-14T05:20:39;97594.06;;;13.77;62.26
42601;BME280;28229;48.856;9.088;2023-06-14T05:23:06;97587.91;;;13.93;62.29
42601;BME280;28229;48.856;9.088;2023-06-14T05:25:32;97603.41;;;14.06;61.83
42601;BME280;28229;48.856;9.088;2023-06-14T05:27:58;97596.09;;;14.14;61.45
42601;BME280;28229;48.856;9.088;2023-06-14T05:30:24;97600.44;;;14.25;61.30
42601;BME280;28229;48.856;9.088;2023-06-14T05:32:50;97599.22;;;14.38;61.30
42601;BME280;28229;48.856;9.088;2023-06-14T05:35:16;97602.72;;;14.43;61.13
42601;BME280;28229;48.856;9.088;2023-06-14T05:37:43;97605.53;;;14.59;60.40
42601;BME280;28229;48.856;9.088;2023-06-14T05:40:09;97599.81;;;14.72;59.85
42601;BME280;28229;48.856;9.088;2023-06-14T05:42:35;97608.06;;;14.76;60.16
42601;BME280;28229;48.856;9.088;2023-06-14T05:45:02;97603.16;;;14.90;59.51
42601;BME280;28229;48.856;9.088;2023-06-14T05:47:28;97599.84;;;15.04;59.47
42601;BME280;28229;48.856;9.088;2023-06-14T05:49:54;97598.56;;;15.12;58.74
42601;BME280;28229;48.856;9.088;2023-06-14T05:52:21;97606.91;;;15.31;57.33
42601;BME280;28229;48.856;9.088;2023-06-14T05:54:49;97599.53;;;15.38;57.06
42601;BME280;28229;48.856;9.088;2023-06-14T05:57:15;97605.94;;;15.48;56.87
42601;BME280;28229;48.856;9.088;2023-06-14T05:59:41;97602.03;;;15.60;56.85
42601;BME280;28229;48.856;9.088;2023-06-14T06:02:07;97600.44;;;15.65;56.66
42601;BME280;28229;48.856;9.088;2023-06-14T06:04:33;97603.63;;;15.67;56.19
42601;BME280;28229;48.856;9.088;2023-06-14T06:07:00;97602.66;;;15.78;56.25
42601;BME280;28229;48.856;9.088;2023-06-14T06:09:26;97608.00;;;15.83;55.34
42601;BME280;28229;48.856;9.088;2023-06-14T06:11:53;97605.63;;;15.97;55.46
42601;BME280;28229;48.856;9.088;2023-06-14T06:14:19;97609.13;;;16.08;55.20
42601;BME280;28229;48.856;9.088;2023-06-14T06:16:45;97616.34;;;16.17;54.92
42601;BME280;28229;48.856;9.088;2023-06-14T06:19:11;97613.44;;;16.34;54.40
42601;BME280;28229;48.856;9.088;2023-06-14T06:21:37;97626.22;;;16.43;53.53
42601;BME280;28229;48.856;9.088;2023-06-14T06:24:05;97622.50;;;16.54;51.90
42601;BME280;28229;48.856;9.088;2023-06-14T06:26:32;97626.25;;;16.63;52.55
42601;BME280;28229;48.856;9.088;2023-06-14T06:28:58;97628.13;;;16.73;51.57
42601;BME280;28229;48.856;9.088;2023-06-14T06:31:25;97629.50;;;16.91;50.92
42601;BME280;28229;48.856;9.088;2023-06-14T06:33:56;97628.97;;;17.04;50.72
42601;BME280;28229;48.856;9.088;2023-06-14T06:36:22;97624.19;;;17.17;50.25
42601;BME280;28229;48.856;9.088;2023-06-14T06:38:48;97626.28;;;17.25;50.11
42601;BME280;28229;48.856;9.088;2023-06-14T06:41:14;97624.66;;;17.44;50.16
42601;BME280;28229;48.856;9.088;2023-06-14T06:43:40;97624.91;;;17.58;49.42
42601;BME280;28229;48.856;9.088;2023-06-14T06:46:09;97632.06;;;17.63;48.59
42601;BME280;28229;48.856;9.088;2023-06-14T06:48:35;97632.03;;;17.73;49.08
42601;BME280;28229;48.856;9.088;2023-06-14T06:51:01;97632.28;;;17.87;48.69
42601;BME280;28229;48.856;9.088;2023-06-14T06:53:27;97642.66;;;17.94;48.90
42601;BME280;28229;48.856;9.088;2023-06-14T06:55:53;97642.13;;;17.97;48.45
42601;BME280;28229;48.856;9.088;2023-06-14T06:58:19;97649.03;;;17.98;48.43
42601;BME280;28229;48.856;9.088;2023-06-14T07:00:48;97647.59;;;18.21;48.34
42601;BME280;28229;48.856;9.088;2023-06-14T07:03:14;97662.66;;;18.41;48.35
42601;BME280;28229;48.856;9.088;2023-06-14T07:05:40;97660.47;;;18.53;47.21
42601;BME280;28229;48.856;9.088;2023-06-14T07:08:06;97656.13;;;18.62;46.89
42601;BME280;28229;48.856;9.088;2023-06-14T07:10:32;97656.59;;;18.75;45.77
42601;BME280;28229;48.856;9.088;2023-06-14T07:12:59;97658.44;;;18.85;45.94
42601;BME280;28229;48.856;9.088;2023-06-14T07:15:25;97667.97;;;18.91;46.02
42601;BME280;28229;48.856;9.088;2023-06-14T07:17:51;97658.88;;;18.97;45.21
42601;BME280;28229;48.856;9.088;2023-06-14T07:20:18;97664.34;;;19.11;45.33
42601;BME280;28229;48.856;9.088;2023-06-14T07:22:47;97660.31;;;19.18;45.32
42601;BME280;28229;48.856;9.088;2023-06-14T07:25:14;97666.88;;;19.31;45.12
42601;BME280;28229;48.856;9.088;2023-06-14T07:27:44;97664.31;;;19.50;44.63
42601;BME280;28229;48.856;9.088;2023-06-14T07:30:11;97665.19;;;19.70;44.93
42601;BME280;28229;48.856;9.088;2023-06-14T07:32:37;97670.63;;;19.84;43.97
42601;BME280;28229;48.856;9.088;2023-06-14T07:35:04;97675.31;;;19.97;43.56
42601;BME280;28229;48.856;9.088;2023-06-14T07:37:31;97684.72;;;20.13;41.85
42601;BME280;28229;48.856;9.088;2023-06-14T07:39:57;97683.38;;;20.16;42.02
42601;BME280;28229;48.856;9.088;2023-06-14T07:42:23;97682.69;;;20.05;42.76
42601;BME280;28229;48.856;9.088;2023-06-14T07:44:49;97678.72;;;20.27;43.11
42601;BME280;28229;48.856;9.088;2023-06-14T07:47:16;97675.94;;;20.32;42.37
42601;BME280;28229;48.856;9.088;2023-06-14T07:49:43;97684.22;;;20.54;41.84
42601;BME280;28229;48.856;9.088;2023-06-14T07:52:09;97678.19;;;20.68;41.93
42601;BME280;28229;48.856;9.088;2023-06-14T07:54:36;97674.50;;;20.83;41.40
42601;BME280;28229;48.856;9.088;2023-06-14T07:57:02;97686.25;;;21.01;41.06
42601;BME280;28229;48.856;9.088;2023-06-14T07:59:28;97677.94;;;21.02;40.18
42601;BME280;28229;48.856;9.088;2023-06-14T08:01:55;97679.16;;;21.10;40.79
42601;BME280;28229;48.856;9.088;2023-06-14T08:04:21;97683.75;;;21.23;40.89
42601;BME280;28229;48.856;9.088;2023-06-14T08:06:47;97688.50;;;21.26;40.94
42601;BME280;28229;48.856;9.088;2023-06-14T08:09:13;97679.66;;;21.45;40.25
42601;BME280;28229;48.856;9.088;2023-06-14T08:11:39;97683.88;;;21.65;40.42
42601;BME280;28229;48.856;9.088;2023-06-14T08:14:06;97688.66;;;21.82;40.32
42601;BME280;28229;48.856;9.088;2023-06-14T08:16:32;97672.38;;;21.92;39.51
42601;BME280;28229;48.856;9.088;2023-06-14T08:18:58;97683.72;;;21.89;38.16
42601;BME280;28229;48.856;9.088;2023-06-14T08:21:25;97683.88;;;22.06;38.90
42601;BME280;28229;48.856;9.088;2023-06-14T08:23:53;97690.25;;;22.11;38.92
42601;BME280;28229;48.856;9.088;2023-06-14T08:26:19;97698.53;;;22.28;38.62
42601;BME280;28229;48.856;9.088;2023-06-14T08:28:45;97688.88;;;22.41;38.42
42601;BME280;28229;48.856;9.088;2023-06-14T08:31:12;97695.22;;;22.45;37.99
42601;BME280;28229;48.856;9.088;2023-06-14T08:33:39;97692.50;;;22.59;38.37
42601;BME280;28229;48.856;9.088;2023-06-14T08:36:08;97689.97;;;22.76;38.24
42601;BME280;28229;48.856;9.088;2023-06-14T08:38:36;97694.28;;;23.00;36.79
42601;BME280;28229;48.856;9.088;2023-06-14T08:41:05;97690.25;;;23.11;37.26
42601;BME280;28229;48.856;9.088;2023-06-14T08:43:34;97691.63;;;23.23;37.71
42601;BME280;28229;48.856;9.088;2023-06-14T08:46:02;97701.84;;;23.43;37.55
42601;BME280;28229;48.856;9.088;2023-06-14T08:48:29;97703.09;;;23.37;37.31
42601;BME280;28229;48.856;9.088;2023-06-14T08:51:00;97704.41;;;23.48;37.67
42601;BME280;28229;48.856;9.088;2023-06-14T08:53:33;97692.94;;;23.56;37.28
42601;BME280;28229;48.856;9.088;2023-06-14T08:56:00;97697.44;;;23.79;36.76
42601;BME280;28229;48.856;9.088;2023-06-14T08:58:31;97700.88;;;24.02;36.75
42601;BME280;28229;48.856;9.088;2023-06-14T09:01:02;97694.31;;;24.25;36.73
42601;BME280;28229;48.856;9.088;2023-06-14T09:03:28;97702.41;;;24.34;35.92
42601;BME280;28229;48.856;9.088;2023-06-14T09:05:57;97700.34;;;24.40;35.48
42601;BME280;28229;48.856;9.088;2023-06-14T09:08:28;97700.19;;;24.36;34.82
42601;BME280;28229;48.856;9.088;2023-06-14T09:10:57;97694.03;;;24.36;34.98
42601;BME280;28229;48.856;9.088;2023-06-14T09:13:23;97696.25;;;24.42;34.83
42601;BME280;28229;48.856;9.088;2023-06-14T09:15:50;97697.72;;;24.66;34.92
42601;BME280;28229;48.856;9.088;2023-06-14T09:18:17;97699.47;;;24.70;33.96
42601;BME280;28229;48.856;9.088;2023-06-14T09:20:43;97694.09;;;24.88;34.63
42601;BME280;28229;48.856;9.088;2023-06-14T09:23:10;97697.59;;;24.80;34.55
42601;BME280;28229;48.856;9.088;2023-06-14T09:25:44;97704.84;;;25.05;33.59
42601;BME280;28229;48.856;9.088;2023-06-14T09:28:11;97700.09;;;25.20;33.11
42601;BME280;28229;48.856;9.088;2023-06-14T09:30:38;97703.25;;;25.39;33.02
42601;BME280;28229;48.856;9.088;2023-06-14T09:33:04;97690.22;;;25.59;33.49
42601;BME280;28229;48.856;9.088;2023-06-14T09:35:31;97700.47;;;25.74;33.44
42601;BME280;28229;48.856;9.088;2023-06-14T09:37:58;97700.53;;;25.57;32.97
42601;BME280;28229;48.856;9.088;2023-06-14T09:40:24;97697.00;;;25.65;32.71
42601;BME280;28229;48.856;9.088;2023-06-14T09:42:51;97700.09;;;25.84;33.04
42601;BME280;28229;48.856;9.088;2023-06-14T09:45:18;97700.91;;;25.94;31.85
42601;BME280;28229;48.856;9.088;2023-06-14T09:47:49;97703.31;;;26.16;31.04
42601;BME280;28229;48.856;9.088;2023-06-14T09:50:15;97702.03;;;26.23;30.36
42601;BME280;28229;48.856;9.088;2023-06-14T09:52:44;97698.34;;;26.27;31.12
42601;BME280;28229;48.856;9.088;2023-06-14T09:55:12;97702.50;;;26.54;31.09
42601;BME280;28229;48.856;9.088;2023-06-14T09:57:41;97702.38;;;26.72;31.54
42601;BME280;28229;48.856;9.088;2023-06-14T10:00:08;97701.47;;;26.68;30.18
42601;BME280;28229;48.856;9.088;2023-06-14T10:02:38;97697.47;;;26.74;29.37
42601;BME280;28229;48.856;9.088;2023-06-14T10:05:09;97699.34;;;26.94;29.02
42601;BME280;28229;48.856;9.088;2023-06-14T10:07:42;97687.50;;;27.08;29.06
42601;BME280;28229;48.856;9.088;2023-06-14T10:10:10;97691.03;;;27.21;29.48
42601;BME280;28229;48.856;9.088;2023-06-14T10:12:43;97686.72;;;27.41;28.31
42601;BME280;28229;48.856;9.088;2023-06-14T10:15:10;97696.84;;;27.44;28.90
42601;BME280;28229;48.856;9.088;2023-06-14T10:17:49;97695.41;;;27.25;27.11
42601;BME280;28229;48.856;9.088;2023-06-14T10:22:47;97700.91;;;26.53;27.42
42601;BME280;28229;48.856;9.088;2023-06-14T10:25:28;97693.59;;;26.33;25.75
42601;BME280;28229;48.856;9.088;2023-06-14T10:30:39;97684.88;;;26.78;25.63
42601;BME280;28229;48.856;9.088;2023-06-14T10:33:07;97688.88;;;26.72;26.06
42601;BME280;28229;48.856;9.088;2023-06-14T10:35:34;97688.03;;;27.01;26.48
42601;BME280;28229;48.856;9.088;2023-06-14T10:38:07;97684.31;;;27.27;26.72
42601;BME280;28229;48.856;9.088;2023-06-14T10:40:34;97686.56;;;27.04;26.53
42601;BME280;28229;48.856;9.088;2023-06-14T10:43:01;97683.25;;;26.56;26.29
42601;BME280;28229;48.856;9.088;2023-06-14T10:45:27;97681.47;;;26.09;26.80
42601;BME280;28229;48.856;9.088;2023-06-14T10:47:57;97681.25;;;26.23;27.08
42601;BME280;28229;48.856;9.088;2023-06-14T10:50:28;97681.28;;;26.44;26.70
42601;BME280;28229;48.856;9.088;2023-06-14T10:52:59;97682.75;;;26.63;27.36
42601;BME280;28229;48.856;9.088;2023-06-14T10:55:27;97682.88;;;27.08;27.07
42601;BME280;28229;48.856;9.088;2023-06-14T10:58:00;97694.38;;;27.39;27.05
42601;BME280;28229;48.856;9.088;2023-06-14T11:00:28;97685.94;;;27.40;26.33
42601;BME280;28229;48.856;9.088;2023-06-14T11:05:59;97696.81;;;27.10;26.02
42601;BME280;28229;48.856;9.088;2023-06-14T11:11:32;97692.97;;;27.32;24.77
42601;BME280;28229;48.856;9.088;2023-06-14T11:14:00;97681.00;;;27.21;25.02
42601;BME280;28229;48.856;9.088;2023-06-14T11:16:27;97687.53;;;27.53;25.12
42601;BME280;28229;48.856;9.088;2023-06-14T11:18:54;97688.00;;;27.68;24.73
42601;BME280;28229;48.856;9.088;2023-06-14T11:21:20;97681.84;;;27.80;24.33
42601;BME280;28229;48.856;9.088;2023-06-14T11:23:50;97677.88;;;27.89;24.42
42601;BME280;28229;48.856;9.088;2023-06-14T11:26:31;97687.94;;;28.14;24.51
42601;BME280;28229;48.856;9.088;2023-06-14T11:28:58;97683.19;;;28.23;24.65
42601;BME280;28229;48.856;9.088;2023-06-14T11:31:26;97688.84;;;28.18;24.29
42601;BME280;28229;48.856;9.088;2023-06-14T11:33:59;97696.69;;;27.61;24.46
42601;BME280;28229;48.856;9.088;2023-06-14T11:36:27;97694.22;;;27.68;24.88
42601;BME280;28229;48.856;9.088;2023-06-14T11:39:06;97689.94;;;27.80;24.13
42601;BME280;28229;48.856;9.088;2023-06-14T11:41:40;97684.44;;;27.88;23.92
42601;BME280;28229;48.856;9.088;2023-06-14T11:44:07;97687.84;;;28.10;24.49
42601;BME280;28229;48.856;9.088;2023-06-14T11:46:34;97679.81;;;28.26;23.94
42601;BME280;28229;48.856;9.088;2023-06-14T11:49:01;97672.78;;;28.49;23.76
42601;BME280;28229;48.856;9.088;2023-06-14T11:51:30;97679.53;;;28.68;24.30
42601;BME280;28229;48.856;9.088;2023-06-14T11:53:57;97687.28;;;28.29;24.09
42601;BME280;28229;48.856;9.088;2023-06-14T11:56:24;97681.59;;;28.34;23.58
42601;BME280;28229;48.856;9.088;2023-06-14T11:58:52;97682.72;;;28.45;23.92
42601;BME280;28229;48.856;9.088;2023-06-14T12:01:18;97678.47;;;28.85;23.96
42601;BME280;28229;48.856;9.088;2023-06-14T12:03:49;97678.19;;;28.74;23.26
42601;BME280;28229;48.856;9.088;2023-06-14T12:06:15;97683.03;;;28.69;23.50
42601;BME280;28229;48.856;9.088;2023-06-14T12:08:43;97687.81;;;28.88;23.77
42601;BME280;28229;48.856;9.088;2023-06-14T12:11:12;97679.22;;;28.57;23.29
42601;BME280;28229;48.856;9.088;2023-06-14T12:13:40;97679.91;;;28.66;23.89
42601;BME280;28229;48.856;9.088;2023-06-14T12:16:10;97681.91;;;28.98;23.18
42601;BME280;28229;48.856;9.088;2023-06-14T12:18:39;97683.25;;;29.04;22.80
42601;BME280;28229;48.856;9.088;2023-06-14T12:21:09;97676.78;;;29.21;22.83
42601;BME280;28229;48.856;9.088;2023-06-14T12:23:54;97679.25;;;29.42;22.85
42601;BME280;28229;48.856;9.088;2023-06-14T12:26:20;97679.88;;;29.51;22.46
42601;BME280;28229;48.856;9.088;2023-06-14T12:28:47;97675.84;;;29.45;22.52
42601;BME280;28229;48.856;9.088;2023-06-14T12:31:15;97687.44;;;29.30;22.49
42601;BME280;28229;48.856;9.088;2023-06-14T12:33:42;97679.06;;;29.35;22.78
42601;BME280;28229;48.856;9.088;2023-06-14T12:36:11;97678.66;;;29.49;22.45
42601;BME280;28229;48.856;9.088;2023-06-14T12:38:37;97680.75;;;29.71;21.83
42601;BME280;28229;48.856;9.088;2023-06-14T12:41:04;97674.22;;;29.88;21.08
42601;BME280;28229;48.856;9.088;2023-06-14T12:43:30;97672.44;;;30.12;21.53
42601;BME280;28229;48.856;9.088;2023-06-14T12:45:56;97671.13;;;30.38;20.86
42601;BME280;28229;48.856;9.088;2023-06-14T12:48:22;97671.44;;;30.52;20.92
42601;BME280;28229;48.856;9.088;2023-06-14T12:50:49;97671.44;;;30.71;21.27
42601;BME280;28229;48.856;9.088;2023-06-14T12:53:15;97673.41;;;30.55;21.74
42601;BME280;28229;48.856;9.088;2023-06-14T12:55:42;97672.22;;;30.52;20.91
42601;BME280;28229;48.856;9.088;2023-06-14T12:58:08;97665.88;;;30.64;20.89
42601;BME280;28229;48.856;9.088;2023-06-14T13:00:35;97673.00;;;30.72;19.84
42601;BME280;28229;48.856;9.088;2023-06-14T13:03:01;97665.69;;;30.57;20.91
42601;BME280;28229;48.856;9.088;2023-06-14T13:05:27;97674.28;;;30.24;21.29
42601;BME280;28229;48.856;9.088;2023-06-14T13:07:54;97666.63;;;29.94;21.19
42601;BME280;28229;48.856;9.088;2023-06-14T13:10:20;97666.44;;;29.87;23.08
42601;BME280;28229;48.856;9.088;2023-06-14T13:12:46;97670.97;;;29.51;22.48
42601;BME280;28229;48.856;9.088;2023-06-14T13:15:13;97671.41;;;29.69;21.91